createdAt,value
2017-03-22T00:01:00.641Z,962.96
2017-03-22T00:02:10.899Z,963.03
2017-03-22T00:03:21.158Z,963.05
2017-03-22T00:04:31.412Z,963.09
2017-03-22T00:05:41.362Z,963.1
2017-03-22T00:06:51.616Z,963.12
2017-03-22T00:08:01.559Z,963.16
2017-03-22T00:09:11.822Z,963.16
2017-03-22T00:10:22.083Z,963.2
2017-03-22T00:11:32.036Z,963.2
2017-03-22T00:12:42.299Z,963.24
2017-03-22T00:13:52.565Z,963.22
2017-03-22T00:15:02.829Z,963.22
2017-03-22T00:16:13.086Z,963.24
2017-03-22T00:17:23.032Z,963.28
2017-03-22T00:18:33.289Z,963.3
2017-03-22T00:19:43.548Z,963.29
2017-03-22T00:20:53.808Z,963.36
2017-03-22T00:22:03.762Z,963.39
2017-03-22T00:23:13.708Z,963.48
2017-03-22T00:24:23.658Z,963.48
2017-03-22T00:25:33.912Z,963.47
2017-03-22T00:26:43.852Z,963.52
2017-03-22T00:27:53.785Z,963.5
2017-03-22T00:29:04.053Z,963.57
2017-03-22T00:30:14.311Z,963.6
2017-03-22T00:31:24.565Z,963.57
2017-03-22T00:32:34.820Z,963.62
2017-03-22T00:33:45.097Z,963.67
2017-03-22T00:34:55.357Z,963.65
2017-03-22T00:36:05.622Z,963.73
2017-03-22T00:37:15.881Z,963.71
2017-03-22T00:38:25.518Z,963.65
2017-03-22T00:39:35.777Z,963.78
2017-03-22T00:40:46.032Z,963.76
2017-03-22T00:41:56.291Z,963.76
2017-03-22T00:43:06.232Z,963.79
2017-03-22T00:44:16.494Z,963.8
2017-03-22T00:45:26.747Z,963.81
2017-03-22T00:46:37.005Z,963.85
2017-03-22T00:47:47.265Z,963.87
2017-03-22T00:48:57.528Z,963.88
2017-03-22T00:50:07.484Z,963.89
2017-03-22T00:51:17.737Z,963.88
2017-03-22T00:52:27.993Z,963.91
2017-03-22T00:53:37.629Z,963.92
2017-03-22T00:54:47.899Z,963.92
2017-03-22T00:55:57.856Z,963.96
2017-03-22T00:57:07.796Z,963.96
2017-03-22T00:58:17.771Z,963.96
2017-03-22T00:59:28.036Z,963.91
2017-03-22T01:00:37.977Z,963.93
2017-03-22T01:01:48.268Z,963.94
2017-03-22T01:02:58.521Z,963.98
2017-03-22T01:04:08.787Z,964.01
2017-03-22T01:05:19.048Z,964.01
2017-03-22T01:06:29.297Z,964.01
2017-03-22T01:07:39.552Z,964.03
2017-03-22T01:08:49.811Z,964.02
2017-03-22T01:10:00.081Z,964.09
2017-03-22T01:11:10.336Z,964.11
2017-03-22T01:12:20.279Z,964.09
2017-03-22T01:13:30.577Z,964.14
2017-03-22T01:14:40.839Z,964.1
2017-03-22T01:15:51.098Z,964.12
2017-03-22T01:17:01.040Z,964.2
2017-03-22T01:18:10.991Z,964.16
2017-03-22T01:19:21.246Z,964.16
2017-03-22T01:20:31.496Z,964.21
2017-03-22T01:21:41.747Z,964.28
2017-03-22T01:22:51.691Z,964.29
2017-03-22T01:24:01.952Z,964.27
2017-03-22T01:25:12.224Z,964.28
2017-03-22T01:26:22.480Z,964.26
2017-03-22T01:27:32.101Z,964.3
2017-03-22T01:28:42.367Z,964.31
2017-03-22T01:29:52.630Z,964.29
2017-03-22T01:31:02.575Z,964.28
2017-03-22T01:32:12.546Z,964.3
2017-03-22T01:33:22.801Z,964.28
2017-03-22T01:34:33.064Z,964.3
2017-03-22T01:35:43.316Z,964.29
2017-03-22T01:36:52.941Z,964.32
2017-03-22T01:38:03.195Z,964.36
2017-03-22T01:39:13.456Z,964.39
2017-03-22T01:40:23.721Z,964.33
2017-03-22T01:41:33.661Z,964.39
2017-03-22T01:42:43.913Z,964.4
2017-03-22T01:43:54.181Z,964.47
2017-03-22T01:45:04.452Z,964.44
2017-03-22T01:46:14.718Z,964.43
2017-03-22T01:47:24.657Z,964.47
2017-03-22T01:48:34.915Z,964.47
2017-03-22T01:49:45.172Z,964.44
2017-03-22T01:50:55.426Z,964.47
2017-03-22T01:52:05.684Z,964.47
2017-03-22T01:53:15.935Z,964.5
2017-03-22T01:54:25.879Z,964.46
2017-03-22T01:55:35.818Z,964.46
2017-03-22T01:56:46.067Z,964.52
2017-03-22T01:57:55.384Z,964.55
2017-03-22T01:59:05.341Z,964.57
2017-03-22T02:00:15.606Z,964.63
2017-03-22T02:01:25.855Z,964.67
2017-03-22T02:02:36.362Z,964.66
2017-03-22T02:03:46.618Z,964.63
2017-03-22T02:04:56.883Z,964.68
2017-03-22T02:06:06.822Z,964.7
2017-03-22T02:07:16.447Z,964.71
2017-03-22T02:08:26.393Z,964.68
2017-03-22T02:09:36.649Z,964.68
2017-03-22T02:10:46.907Z,964.74
2017-03-22T02:11:57.161Z,964.76
2017-03-22T02:13:06.475Z,964.9
2017-03-22T02:14:16.421Z,964.83
2017-03-22T02:15:26.360Z,964.8
2017-03-22T02:16:36.304Z,964.67
2017-03-22T02:17:46.563Z,964.83
2017-03-22T02:18:56.821Z,964.92
2017-03-22T02:20:06.764Z,964.81
2017-03-22T02:21:17.027Z,964.88
2017-03-22T02:22:27.272Z,964.8
2017-03-22T02:23:37.528Z,964.91
2017-03-22T02:24:47.475Z,964.84
2017-03-22T02:25:57.746Z,964.92
2017-03-22T02:27:07.997Z,964.96
2017-03-22T02:28:17.941Z,965.01
2017-03-22T02:29:27.887Z,965.03
2017-03-22T02:30:38.145Z,965.02
2017-03-22T02:31:48.091Z,964.99
2017-03-22T02:32:58.032Z,965.08
2017-03-22T02:34:08.287Z,965.04
2017-03-22T02:35:18.544Z,965.07
2017-03-22T02:36:28.488Z,965.11
2017-03-22T02:37:38.740Z,965.13
2017-03-22T02:38:48.998Z,965.17
2017-03-22T02:39:59.296Z,965.23
2017-03-22T02:41:09.261Z,965.21
2017-03-22T02:42:19.231Z,965.27
2017-03-22T02:43:29.179Z,965.3
2017-03-22T02:44:39.450Z,965.4
2017-03-22T02:45:49.401Z,965.37
2017-03-22T02:46:59.659Z,965.39
2017-03-22T02:48:09.915Z,965.4
2017-03-22T02:49:20.175Z,965.46
2017-03-22T02:50:30.114Z,965.44
2017-03-22T02:51:40.373Z,965.5
2017-03-22T02:52:50.323Z,965.5
2017-03-22T02:54:00.605Z,965.47
2017-03-22T02:55:09.931Z,965.49
2017-03-22T02:56:20.183Z,965.53
2017-03-22T02:57:30.465Z,965.52
2017-03-22T02:58:40.105Z,965.54
2017-03-22T02:59:50.360Z,965.54
2017-03-22T03:01:00.620Z,965.6
2017-03-22T03:02:10.886Z,965.62
2017-03-22T03:03:20.858Z,965.59
2017-03-22T03:04:31.117Z,965.58
2017-03-22T03:05:41.372Z,965.63
2017-03-22T03:06:51.005Z,965.67
2017-03-22T03:08:01.266Z,965.67
2017-03-22T03:09:11.528Z,965.68
2017-03-22T03:10:21.789Z,965.72
2017-03-22T03:11:31.729Z,965.71
2017-03-22T03:12:41.987Z,965.71
2017-03-22T03:13:52.256Z,965.72
2017-03-22T03:15:02.514Z,965.75
2017-03-22T03:16:12.454Z,965.79
2017-03-22T03:17:22.397Z,965.78
2017-03-22T03:18:32.337Z,965.8
2017-03-22T03:19:42.634Z,965.83
2017-03-22T03:20:52.898Z,965.83
2017-03-22T03:22:03.149Z,965.87
2017-03-22T03:23:12.463Z,965.86
2017-03-22T03:24:22.725Z,965.89
2017-03-22T03:25:32.666Z,965.94
2017-03-22T03:26:42.609Z,966.04
2017-03-22T03:27:52.862Z,966.04
2017-03-22T03:29:03.127Z,966.07
2017-03-22T03:30:13.391Z,966.08
2017-03-22T03:31:23.644Z,966.12
2017-03-22T03:32:33.903Z,966.14
2017-03-22T03:33:44.167Z,966.15
2017-03-22T03:34:54.109Z,966.23
2017-03-22T03:36:04.363Z,966.19
2017-03-22T03:37:14.334Z,966.13
2017-03-22T03:38:24.271Z,966.22
2017-03-22T03:39:34.227Z,966.28
2017-03-22T03:40:44.481Z,966.23
2017-03-22T03:41:54.734Z,966.29
2017-03-22T03:43:04.985Z,966.3
2017-03-22T03:44:14.929Z,966.34
2017-03-22T03:45:25.180Z,966.4
2017-03-22T03:46:35.120Z,966.37
2017-03-22T03:47:45.370Z,966.33
2017-03-22T03:48:55.630Z,966.38
2017-03-22T03:50:05.575Z,966.4
2017-03-22T03:51:15.514Z,966.39
2017-03-22T03:52:25.449Z,966.4
2017-03-22T03:53:35.707Z,966.39
2017-03-22T03:54:45.651Z,966.42
2017-03-22T03:55:55.598Z,966.37
2017-03-22T03:57:05.541Z,966.39
2017-03-22T03:58:15.791Z,966.38
2017-03-22T03:59:25.840Z,966.37
2017-03-22T04:00:36.095Z,966.4
2017-03-22T04:01:46.340Z,966.4
2017-03-22T04:02:56.589Z,966.43
2017-03-22T04:04:06.848Z,966.44
2017-03-22T04:05:16.793Z,966.45
2017-03-22T04:06:27.047Z,966.48
2017-03-22T04:07:36.981Z,966.51
2017-03-22T04:08:47.251Z,966.49
2017-03-22T04:09:57.512Z,966.51
2017-03-22T04:11:09.768Z,966.52
2017-03-22T04:12:20.021Z,966.55
2017-03-22T04:13:29.647Z,966.6
2017-03-22T04:14:39.907Z,966.6
2017-03-22T04:15:49.852Z,966.62
2017-03-22T04:17:00.100Z,966.61
2017-03-22T04:18:10.398Z,966.62
2017-03-22T04:19:20.663Z,966.6
2017-03-22T04:20:30.927Z,966.61
2017-03-22T04:21:40.898Z,966.64
2017-03-22T04:22:51.152Z,966.67
2017-03-22T04:24:01.409Z,966.65
2017-03-22T04:25:11.356Z,966.69
2017-03-22T04:26:21.624Z,966.71
2017-03-22T04:27:31.902Z,966.72
2017-03-22T04:28:41.848Z,966.85
2017-03-22T04:29:52.115Z,966.74
2017-03-22T04:31:02.375Z,966.74
2017-03-22T04:32:12.633Z,966.78
2017-03-22T04:33:22.266Z,966.77
2017-03-22T04:34:32.540Z,966.79
2017-03-22T04:35:42.802Z,966.79
2017-03-22T04:36:53.055Z,966.81
2017-03-22T04:38:02.993Z,966.84
2017-03-22T04:39:13.246Z,966.84
2017-03-22T04:40:23.504Z,966.85
2017-03-22T04:41:33.753Z,966.83
2017-03-22T04:42:44.046Z,966.87
2017-03-22T04:43:54.303Z,966.86
2017-03-22T04:45:04.560Z,966.86
2017-03-22T04:46:14.497Z,966.87
2017-03-22T04:47:24.435Z,966.97
2017-03-22T04:48:34.688Z,966.89
2017-03-22T04:49:44.950Z,966.92
2017-03-22T04:50:55.212Z,966.89
2017-03-22T04:52:05.465Z,966.92
2017-03-22T04:53:15.727Z,966.87
2017-03-22T04:54:25.994Z,966.91
2017-03-22T04:55:35.940Z,966.87
2017-03-22T04:56:46.194Z,967
2017-03-22T04:57:56.449Z,966.96
2017-03-22T04:59:06.720Z,967.03
2017-03-22T05:00:16.977Z,966.92
2017-03-22T05:01:27.264Z,967
2017-03-22T05:02:37.513Z,967.07
2017-03-22T05:03:47.456Z,967.04
2017-03-22T05:04:57.714Z,966.98
2017-03-22T05:06:07.027Z,966.99
2017-03-22T05:07:16.970Z,966.99
2017-03-22T05:08:27.233Z,966.97
2017-03-22T05:09:37.515Z,966.97
2017-03-22T05:10:47.453Z,966.97
2017-03-22T05:11:57.702Z,966.99
2017-03-22T05:13:07.955Z,967.02
2017-03-22T05:14:18.221Z,967
2017-03-22T05:15:28.478Z,967.01
2017-03-22T05:16:38.733Z,967.02
2017-03-22T05:17:48.992Z,967.07
2017-03-22T05:18:59.253Z,967.12
2017-03-22T05:20:09.514Z,967.07
2017-03-22T05:21:19.450Z,967.17
2017-03-22T05:22:29.711Z,967.14
2017-03-22T05:23:39.977Z,967.16
2017-03-22T05:24:49.944Z,967.22
2017-03-22T05:26:00.201Z,967.18
2017-03-22T05:27:09.822Z,967.18
2017-03-22T05:28:20.070Z,967.21
2017-03-22T05:29:30.342Z,967.23
2017-03-22T05:30:40.599Z,967.27
2017-03-22T05:31:50.219Z,967.27
2017-03-22T05:33:00.153Z,967.34
2017-03-22T05:34:10.406Z,967.4
2017-03-22T05:35:20.670Z,967.41
2017-03-22T05:36:30.933Z,967.45
2017-03-22T05:37:40.876Z,967.46
2017-03-22T05:38:50.821Z,967.51
2017-03-22T05:40:01.079Z,967.62
2017-03-22T05:41:10.709Z,967.51
2017-03-22T05:42:20.961Z,967.56
2017-03-22T05:43:31.248Z,967.5
2017-03-22T05:44:41.528Z,967.48
2017-03-22T05:45:51.774Z,967.47
2017-03-22T05:47:02.024Z,967.51
2017-03-22T05:48:11.977Z,967.56
2017-03-22T05:49:22.239Z,967.55
2017-03-22T05:50:32.180Z,967.56
2017-03-22T05:51:42.115Z,967.57
2017-03-22T05:52:51.738Z,967.6
2017-03-22T05:54:01.994Z,967.61
2017-03-22T05:55:11.948Z,967.57
2017-03-22T05:56:22.223Z,967.68
2017-03-22T05:57:31.534Z,967.76
2017-03-22T05:58:41.789Z,967.72
2017-03-22T05:59:52.046Z,967.81
2017-03-22T06:01:02.324Z,967.86
2017-03-22T06:02:12.261Z,967.83
2017-03-22T06:03:22.516Z,967.9
2017-03-22T06:04:32.777Z,967.98
2017-03-22T06:05:43.032Z,968.05
2017-03-22T06:06:52.663Z,967.89
2017-03-22T06:08:02.923Z,967.94
2017-03-22T06:09:12.870Z,967.93
2017-03-22T06:10:22.827Z,967.96
2017-03-22T06:11:33.082Z,968.08
2017-03-22T06:12:42.705Z,968.09
2017-03-22T06:13:52.652Z,968.19
2017-03-22T06:15:02.913Z,968.12
2017-03-22T06:16:12.866Z,968.1
2017-03-22T06:17:22.808Z,968.12
2017-03-22T06:18:33.061Z,968.1
2017-03-22T06:19:42.997Z,968.12
2017-03-22T06:20:53.254Z,968.21
2017-03-22T06:22:03.194Z,968.2
2017-03-22T06:23:13.460Z,968.24
2017-03-22T06:24:23.723Z,968.24
2017-03-22T06:25:33.979Z,968.3
2017-03-22T06:26:43.917Z,968.3
2017-03-22T06:27:53.861Z,968.37
2017-03-22T06:29:03.853Z,968.38
2017-03-22T06:30:14.110Z,968.38
2017-03-22T06:32:37.286Z,968.44
2017-03-22T06:33:47.545Z,968.49
2017-03-22T06:34:57.495Z,968.55
2017-03-22T06:36:07.755Z,968.53
2017-03-22T06:37:17.698Z,968.55
2017-03-22T06:38:27.954Z,968.59
2017-03-22T06:39:38.214Z,968.67
2017-03-22T06:40:48.464Z,968.73
2017-03-22T06:41:58.096Z,968.64
2017-03-22T06:43:08.041Z,968.69
2017-03-22T06:44:17.985Z,968.7
2017-03-22T06:45:28.272Z,968.73
2017-03-22T06:46:38.213Z,968.75
2017-03-22T06:47:48.512Z,968.65
2017-03-22T06:48:58.771Z,968.69
2017-03-22T06:50:09.053Z,968.71
2017-03-22T06:51:19.337Z,968.68
2017-03-22T06:52:29.591Z,968.75
2017-03-22T06:53:39.850Z,968.7
2017-03-22T06:54:50.108Z,968.72
2017-03-22T06:56:00.063Z,968.78
2017-03-22T06:57:09.689Z,968.69
2017-03-22T06:58:19.945Z,968.78
2017-03-22T06:59:29.893Z,968.78
2017-03-22T07:00:39.522Z,968.83
2017-03-22T07:01:49.776Z,968.85
2017-03-22T07:03:00.028Z,968.85
2017-03-22T07:04:09.974Z,968.89
2017-03-22T07:05:19.918Z,968.93
2017-03-22T07:06:29.862Z,968.82
2017-03-22T07:07:40.122Z,968.86
2017-03-22T07:08:50.072Z,968.88
2017-03-22T07:10:00.072Z,968.92
2017-03-22T07:11:10.061Z,968.91
2017-03-22T07:12:20.319Z,968.98
2017-03-22T07:13:30.576Z,969.01
2017-03-22T07:14:40.852Z,969.04
2017-03-22T07:15:51.104Z,969.05
2017-03-22T07:17:01.042Z,969.11
2017-03-22T07:18:11.304Z,969.1
2017-03-22T07:19:21.562Z,969.14
2017-03-22T07:20:31.829Z,969.18
2017-03-22T07:21:42.082Z,969.22
2017-03-22T07:22:52.335Z,969.23
2017-03-22T07:24:02.283Z,969.29
2017-03-22T07:25:12.221Z,969.3
2017-03-22T07:26:21.841Z,969.29
2017-03-22T07:27:32.100Z,969.32
2017-03-22T07:28:42.362Z,969.31
2017-03-22T07:29:52.622Z,969.31
2017-03-22T07:31:02.571Z,969.34
2017-03-22T07:32:12.832Z,969.38
2017-03-22T07:33:23.092Z,969.42
2017-03-22T07:34:33.365Z,969.45
2017-03-22T07:35:43.624Z,969.43
2017-03-22T07:36:53.564Z,969.48
2017-03-22T07:38:03.823Z,969.5
2017-03-22T07:39:14.076Z,969.49
2017-03-22T07:40:24.346Z,969.51
2017-03-22T07:41:34.605Z,969.6
2017-03-22T07:42:44.548Z,969.58
2017-03-22T07:43:54.495Z,969.6
2017-03-22T07:45:04.754Z,969.61
2017-03-22T07:46:14.700Z,969.66
2017-03-22T07:47:24.959Z,969.69
2017-03-22T07:48:35.221Z,969.69
2017-03-22T07:49:44.870Z,969.72
2017-03-22T07:50:55.133Z,969.68
2017-03-22T07:52:05.076Z,969.73
2017-03-22T07:53:15.324Z,969.81
2017-03-22T07:54:25.579Z,969.72
2017-03-22T07:55:35.837Z,969.78
2017-03-22T07:56:46.088Z,969.8
2017-03-22T07:57:56.346Z,969.79
2017-03-22T07:59:05.981Z,969.83
2017-03-22T08:00:15.987Z,969.83
2017-03-22T08:01:26.241Z,969.87
2017-03-22T08:02:36.236Z,969.88
2017-03-22T08:03:46.194Z,969.86
2017-03-22T08:04:55.822Z,969.91
2017-03-22T08:06:06.078Z,969.9
2017-03-22T08:07:16.025Z,969.93
2017-03-22T08:08:25.972Z,969.94
2017-03-22T08:09:36.235Z,970.01
2017-03-22T08:10:46.539Z,970.06
2017-03-22T08:11:56.811Z,970.14
2017-03-22T08:13:06.756Z,970.02
2017-03-22T08:14:17.022Z,970.16
2017-03-22T08:15:26.977Z,970.09
2017-03-22T08:16:37.234Z,970.13
2017-03-22T08:17:47.491Z,970.13
2017-03-22T08:18:57.749Z,970.14
2017-03-22T08:20:07.697Z,970.16
2017-03-22T08:21:17.951Z,970.22
2017-03-22T08:22:28.206Z,970.15
2017-03-22T08:23:38.466Z,970.22
2017-03-22T08:24:48.737Z,970.19
2017-03-22T08:25:58.690Z,970.23
2017-03-22T08:27:08.940Z,970.24
2017-03-22T08:28:19.195Z,970.3
2017-03-22T08:29:29.464Z,970.32
2017-03-22T08:30:39.120Z,970.33
2017-03-22T08:31:49.066Z,970.29
2017-03-22T08:32:59.325Z,970.32
2017-03-22T08:34:09.583Z,970.39
2017-03-22T08:35:19.844Z,970.39
2017-03-22T08:36:30.101Z,970.48
2017-03-22T08:37:40.353Z,970.59
2017-03-22T08:38:50.613Z,970.45
2017-03-22T08:40:00.872Z,970.44
2017-03-22T08:41:10.808Z,970.51
2017-03-22T08:42:21.058Z,970.55
2017-03-22T08:43:31.009Z,970.53
2017-03-22T08:44:41.286Z,970.52
2017-03-22T08:45:51.223Z,970.52
2017-03-22T08:47:01.165Z,970.62
2017-03-22T08:48:11.422Z,970.67
2017-03-22T08:49:21.369Z,970.59
2017-03-22T08:50:31.625Z,970.72
2017-03-22T08:51:41.914Z,970.62
2017-03-22T08:52:51.856Z,970.71
2017-03-22T08:54:02.112Z,970.65
2017-03-22T08:55:12.379Z,970.7
2017-03-22T08:56:22.315Z,970.7
2017-03-22T08:57:32.564Z,970.71
2017-03-22T08:58:42.826Z,970.71
2017-03-22T08:59:52.458Z,970.72
2017-03-22T09:01:02.395Z,970.8
2017-03-22T09:02:12.025Z,970.82
2017-03-22T09:03:21.973Z,970.82
2017-03-22T09:04:31.913Z,970.83
2017-03-22T09:05:41.860Z,970.82
2017-03-22T09:06:51.796Z,970.93
2017-03-22T09:08:02.049Z,970.92
2017-03-22T09:09:12.302Z,970.95
2017-03-22T09:10:22.552Z,971.02
2017-03-22T09:11:32.807Z,971.05
2017-03-22T09:12:43.125Z,971.08
2017-03-22T09:13:52.440Z,971.1
2017-03-22T09:15:02.387Z,971.06
2017-03-22T09:16:12.643Z,971.2
2017-03-22T09:17:22.897Z,971.17
2017-03-22T09:18:32.836Z,971.17
2017-03-22T09:19:43.091Z,971.21
2017-03-22T09:20:53.346Z,971.24
2017-03-22T09:22:03.608Z,971.09
2017-03-22T09:23:13.549Z,971.13
2017-03-22T09:24:23.801Z,971.13
2017-03-22T09:25:34.057Z,971.18
2017-03-22T09:26:44.315Z,971.16
2017-03-22T09:27:54.251Z,971.22
2017-03-22T09:29:04.520Z,971.19
2017-03-22T09:30:14.780Z,971.28
2017-03-22T09:31:24.730Z,971.27
2017-03-22T09:32:34.982Z,971.31
2017-03-22T09:33:44.924Z,971.36
2017-03-22T09:34:55.183Z,971.3
2017-03-22T09:36:05.437Z,971.42
2017-03-22T09:37:14.758Z,971.36
2017-03-22T09:38:25.014Z,971.37
2017-03-22T09:39:35.278Z,971.39
2017-03-22T09:40:45.224Z,971.38
2017-03-22T09:41:55.477Z,971.42
2017-03-22T09:43:05.752Z,971.41
2017-03-22T09:44:16.006Z,971.4
2017-03-22T09:45:26.258Z,971.46
2017-03-22T09:46:36.517Z,971.48
2017-03-22T09:47:46.146Z,971.45
2017-03-22T09:48:56.394Z,971.46
2017-03-22T09:50:06.031Z,971.45
2017-03-22T09:51:15.970Z,971.49
2017-03-22T09:52:26.224Z,971.49
2017-03-22T09:53:36.164Z,971.46
2017-03-22T09:54:46.097Z,971.51
2017-03-22T09:55:56.041Z,971.48
2017-03-22T09:57:05.992Z,971.51
2017-03-22T09:58:15.623Z,971.47
2017-03-22T09:59:25.586Z,971.48
2017-03-22T10:00:35.845Z,971.48
2017-03-22T10:01:45.474Z,971.52
2017-03-22T10:02:55.454Z,971.64
2017-03-22T10:04:05.075Z,971.64
2017-03-22T10:05:15.330Z,971.67
2017-03-22T10:06:25.581Z,971.71
2017-03-22T10:07:35.526Z,971.72
2017-03-22T10:08:45.472Z,971.81
2017-03-22T10:09:55.727Z,971.8
2017-03-22T10:11:05.350Z,971.84
2017-03-22T10:12:14.347Z,971.84
2017-03-22T10:13:24.324Z,971.91
2017-03-22T10:14:34.577Z,971.88
2017-03-22T10:15:44.517Z,971.95
2017-03-22T10:16:54.806Z,971.97
2017-03-22T10:18:04.743Z,971.98
2017-03-22T10:19:14.689Z,971.97
2017-03-22T10:20:24.953Z,971.96
2017-03-22T10:21:35.209Z,971.95
2017-03-22T10:22:45.154Z,972
2017-03-22T10:23:54.776Z,971.98
2017-03-22T10:25:05.026Z,972.03
2017-03-22T10:26:15.284Z,972
2017-03-22T10:27:25.226Z,971.96
2017-03-22T10:28:35.479Z,972.03
2017-03-22T10:29:45.740Z,972.06
2017-03-22T10:30:56.000Z,972.01
2017-03-22T10:32:06.249Z,972.03
2017-03-22T10:33:16.194Z,971.96
2017-03-22T10:34:26.446Z,972.09
2017-03-22T10:35:35.767Z,972.11
2017-03-22T10:36:45.714Z,972.07
2017-03-22T10:37:55.965Z,972.1
2017-03-22T10:39:05.905Z,972.11
2017-03-22T10:40:16.163Z,972.17
2017-03-22T10:41:26.414Z,972.14
2017-03-22T10:42:36.355Z,972.18
2017-03-22T10:43:46.301Z,972.18
2017-03-22T10:44:55.962Z,972.23
2017-03-22T10:46:05.588Z,972.23
2017-03-22T10:47:15.846Z,972.19
2017-03-22T10:48:26.106Z,972.26
2017-03-22T10:49:36.054Z,972.3
2017-03-22T10:50:45.994Z,972.31
2017-03-22T10:51:56.251Z,972.33
2017-03-22T10:53:06.193Z,972.33
2017-03-22T10:54:16.449Z,972.31
2017-03-22T10:55:26.383Z,972.34
2017-03-22T10:56:36.641Z,972.33
2017-03-22T10:57:46.902Z,972.35
2017-03-22T10:58:57.163Z,972.31
2017-03-22T11:00:07.418Z,972.39
2017-03-22T11:01:17.675Z,972.43
2017-03-22T11:02:27.624Z,972.46
2017-03-22T11:03:37.881Z,972.51
2017-03-22T11:04:47.817Z,972.5
2017-03-22T11:05:58.072Z,972.5
2017-03-22T11:07:08.327Z,972.53
2017-03-22T11:08:18.584Z,972.49
2017-03-22T11:09:28.841Z,972.56
2017-03-22T11:10:39.095Z,972.58
2017-03-22T11:11:49.353Z,972.58
2017-03-22T11:12:59.610Z,972.61
2017-03-22T11:14:09.556Z,972.74
2017-03-22T11:15:19.816Z,972.83
2017-03-22T11:16:29.762Z,972.83
2017-03-22T11:17:39.709Z,972.94
2017-03-22T11:18:49.970Z,972.93
2017-03-22T11:19:59.911Z,972.95
2017-03-22T11:21:10.179Z,972.93
2017-03-22T11:22:20.124Z,973.02
2017-03-22T11:23:30.384Z,973.07
2017-03-22T11:24:40.361Z,972.97
2017-03-22T11:25:50.631Z,972.94
2017-03-22T11:27:00.889Z,973.16
2017-03-22T11:28:10.522Z,973.15
2017-03-22T11:29:20.782Z,973.06
2017-03-22T11:30:31.049Z,973.28
2017-03-22T11:31:41.308Z,973.36
2017-03-22T11:32:51.261Z,973.47
2017-03-22T11:34:01.215Z,973.49
2017-03-22T11:35:11.172Z,973.47
2017-03-22T11:36:21.126Z,973.33
2017-03-22T11:37:31.399Z,973.66
2017-03-22T11:38:41.670Z,973.76
2017-03-22T11:39:51.971Z,973.81
2017-03-22T11:41:01.921Z,973.82
2017-03-22T11:42:12.187Z,973.93
2017-03-22T11:43:22.461Z,973.94
2017-03-22T11:44:32.736Z,974.03
2017-03-22T11:45:42.692Z,973.51
2017-03-22T11:46:52.962Z,973.57
2017-03-22T11:48:03.231Z,973.67
2017-03-22T11:49:13.503Z,973.86
2017-03-22T11:50:23.777Z,974.01
2017-03-22T11:51:34.047Z,974.24
2017-03-22T11:52:44.321Z,974.22
2017-03-22T11:53:54.591Z,973.79
2017-03-22T11:55:04.547Z,974.36
2017-03-22T11:56:14.502Z,974.12
2017-03-22T11:57:24.454Z,973.92
2017-03-22T11:58:34.726Z,974.02
2017-03-22T11:59:44.996Z,974.07
2017-03-22T12:00:54.949Z,974.37
2017-03-22T12:02:05.222Z,974.31
2017-03-22T12:03:15.236Z,973.86
2017-03-22T12:04:25.516Z,973.83
2017-03-22T12:05:35.784Z,973.72
2017-03-22T12:06:46.057Z,973.81
2017-03-22T12:07:56.018Z,973.87
2017-03-22T12:09:05.345Z,973.89
2017-03-22T12:10:15.613Z,973.95
2017-03-22T12:11:25.574Z,974.08
2017-03-22T12:12:35.857Z,974.07
2017-03-22T12:13:46.132Z,974.09
2017-03-22T12:14:56.402Z,974.05
2017-03-22T12:16:05.732Z,974.01
2017-03-22T12:17:15.998Z,974.03
2017-03-22T12:18:25.634Z,974.01
2017-03-22T12:19:35.902Z,974.01
2017-03-22T12:20:46.170Z,973.97
2017-03-22T12:21:56.120Z,973.95
2017-03-22T12:23:05.760Z,973.97
2017-03-22T12:24:15.718Z,973.94
2017-03-22T12:25:25.670Z,974
2017-03-22T12:26:35.935Z,974.08
2017-03-22T12:27:46.195Z,974.15
2017-03-22T12:28:56.148Z,974.17
2017-03-22T12:30:06.095Z,974.19
2017-03-22T12:31:16.358Z,974.22
2017-03-22T12:32:26.312Z,974.29
2017-03-22T12:33:36.360Z,974.33
2017-03-22T12:34:46.628Z,974.36
2017-03-22T12:35:56.890Z,974.47
2017-03-22T12:37:06.835Z,974.59
2017-03-22T12:38:16.785Z,974.57
2017-03-22T12:39:26.731Z,974.67
2017-03-22T12:40:36.993Z,974.63
2017-03-22T12:41:46.637Z,974.62
2017-03-22T12:42:56.899Z,974.59
2017-03-22T12:44:06.844Z,974.67
2017-03-22T12:45:16.786Z,974.8
2017-03-22T12:46:26.415Z,974.85
2017-03-22T12:47:36.673Z,974.85
2017-03-22T12:48:46.934Z,974.91
2017-03-22T12:49:57.191Z,974.99
2017-03-22T12:51:07.455Z,975.09
2017-03-22T12:52:17.099Z,975.24
2017-03-22T12:53:27.047Z,975.12
2017-03-22T12:54:37.030Z,975.31
2017-03-22T12:55:46.974Z,975.46
2017-03-22T12:56:56.611Z,975.56
2017-03-22T12:58:06.868Z,975.24
2017-03-22T12:59:16.504Z,975.3
2017-03-22T13:00:26.450Z,975.52
2017-03-22T13:01:36.388Z,975.33
2017-03-22T13:02:46.375Z,975.3
2017-03-22T13:03:56.002Z,975.2
2017-03-22T13:05:05.628Z,975.2
2017-03-22T13:06:15.295Z,975.42
2017-03-22T13:07:25.554Z,975.4
2017-03-22T13:08:35.499Z,975.37
2017-03-22T13:09:45.763Z,975.32
2017-03-22T13:10:55.742Z,975.26
2017-03-22T13:12:05.999Z,975.28
2017-03-22T13:13:16.256Z,975.32
2017-03-22T13:14:26.517Z,975.3
2017-03-22T13:15:36.462Z,975.35
2017-03-22T13:16:46.410Z,975.35
2017-03-22T13:17:56.666Z,975.45
2017-03-22T13:19:06.926Z,975.53
2017-03-22T13:20:16.302Z,975.54
2017-03-22T13:21:26.262Z,975.63
2017-03-22T13:22:36.210Z,975.68
2017-03-22T13:23:46.479Z,975.78
2017-03-22T13:24:56.739Z,975.77
2017-03-22T13:26:06.681Z,975.78
2017-03-22T13:27:16.625Z,975.74
2017-03-22T13:28:26.571Z,975.76
2017-03-22T13:29:36.832Z,975.73
2017-03-22T13:30:47.089Z,975.74
2017-03-22T13:31:56.723Z,975.62
2017-03-22T13:33:06.681Z,975.58
2017-03-22T13:34:16.629Z,975.59
2017-03-22T13:35:26.579Z,975.63
2017-03-22T13:36:36.839Z,975.64
2017-03-22T13:37:46.786Z,975.64
2017-03-22T13:38:57.055Z,975.62
2017-03-22T13:40:07.321Z,975.64
2017-03-22T13:41:17.265Z,975.63
2017-03-22T13:42:27.248Z,975.62
2017-03-22T13:43:37.509Z,975.65
2017-03-22T13:44:47.148Z,975.64
2017-03-22T13:45:57.098Z,975.7
2017-03-22T13:47:07.357Z,975.68
2017-03-22T13:48:17.299Z,975.66
2017-03-22T13:49:27.237Z,975.69
2017-03-22T13:50:37.496Z,975.72
2017-03-22T13:51:47.749Z,975.75
2017-03-22T13:52:58.004Z,975.84
2017-03-22T13:54:07.957Z,975.88
2017-03-22T13:55:17.908Z,975.97
2017-03-22T13:56:28.195Z,976.03
2017-03-22T13:57:38.175Z,976.14
2017-03-22T13:58:48.126Z,976.27
2017-03-22T13:59:58.072Z,976.11
2017-03-22T14:01:08.020Z,976.21
2017-03-22T14:02:18.284Z,976.14
2017-03-22T14:03:28.542Z,976.24
2017-03-22T14:04:38.801Z,976.35
2017-03-22T14:05:49.057Z,976.26
2017-03-22T14:06:58.997Z,976.29
2017-03-22T14:08:08.949Z,976.17
2017-03-22T14:09:18.895Z,976.17
2017-03-22T14:10:28.531Z,976.15
2017-03-22T14:11:38.789Z,976.06
2017-03-22T14:12:49.049Z,976.05
2017-03-22T14:13:58.049Z,976.17
2017-03-22T14:15:07.993Z,976.19
2017-03-22T14:16:17.628Z,976.19
2017-03-22T14:17:27.883Z,976.22
2017-03-22T14:18:38.146Z,976.21
2017-03-22T14:19:48.407Z,976.21
2017-03-22T14:20:58.360Z,976.13
2017-03-22T14:22:08.619Z,976.15
2017-03-22T14:23:18.564Z,976.15
2017-03-22T14:24:28.824Z,976.16
2017-03-22T14:25:38.773Z,976.2
2017-03-22T14:26:49.082Z,976.19
2017-03-22T14:27:58.714Z,976.22
2017-03-22T14:29:08.352Z,976.22
2017-03-22T14:30:18.611Z,976.23
2017-03-22T14:31:28.244Z,976.18
2017-03-22T14:32:38.505Z,976.12
2017-03-22T14:33:48.451Z,976.17
2017-03-22T14:34:58.711Z,976.17
2017-03-22T14:36:08.027Z,976.17
2017-03-22T14:37:17.969Z,976.2
2017-03-22T14:38:28.230Z,976.21
2017-03-22T14:39:38.491Z,976.14